Startpagina
METAR-TAF:

METAR-TAF

Vliegvelden :

Yap, Micronesië

breedte: 09-29N, lengte: 138-05E, hoogte: 28 m

Actueel weer

Dit bericht is 1 uur en het 7 minuten geleden gemaakt, om 17:50 UTC
Wind 5 kt uit variabele richting
Temperatuur 25°C
Vochtigheid 94%
Druk 1007 hPa
Zicht: 16.1 km
Verspreide wolken op 1600 ft, Stapelwolken.
Gebroken wolken op 12000 ft
Geheel bewolkt op 30000 ft

METAR: PTYA 191750Z VRB05KT 10SM SCT016TCU BKN120 OVC300 25/24 A2974 RMK TCU ALQDS SLP073 60023 8/278 T02480235 10250 20240 57015

Tijdstip: 04:57 (18:57 UTC)

Verwachting

Dit bericht is 1 uur en het 37 minuten geleden gemaakt, om 17:20 UTC
Verwachting geldig van 19 om 18 UTC tot 20 om 18 UTC
Wind 7 kt uit het oostnoordoosten
Zicht: 10 km
Verspreide wolken op 1800 ft
Gebroken wolken op 14000 ft
buien in de omgeving

TAF: PTYA 191720Z 1918/2018 07007KT P6SM VCSH SCT018 BKN140

Waarnemingen en weersverwachtingen van meer dan 4000 vliegvelden (METAR en TAF).

De beschikbare stations zijn de gele en rode punten op de kaart.

Ga met uw muis naar het station om de naam te zien.

Klik dan om waarnemingen en weersverwachtingen te zien.

kaart wijzigen: klik op de groene knoppen met een zwart kruis om in te zoomen, op de groene knop met een streepje om uit te zoomen of op de groene pijlen voor aangrenzende kaarten.


METAR-TAF: